This is the latest recevied weather packets stored in our database for station/object BMCB-10. If no packets are shown the sender has not sent any weather packets the latest 10 day(s).
| Time | Temp. | Humidity | Pressure | Rain* | Wind** | Luminosity | Snow |
|---|---|---|---|---|---|---|---|
| 1777682435 | 3.89° C | 96% | 1021 hPa | 0 mm | - | 0 W/m² | - |
| 1777680050 | 3.89° C | 95% | 1021.2 hPa | 0 mm | - | 0 W/m² | - |
| 1777678851 | 4.44° C | 95% | 1021.5 hPa | 0 mm | - | 0 W/m² | - |
| 1777674655 | 5.56° C | 91% | 1022.1 hPa | 0 mm | - | 0 W/m² | - |
| 1777671656 | 6.11° C | 88% | 1022.1 hPa | 0 mm | - | 0 W/m² | - |
| 1777671055 | 6.11° C | 87% | 1022.1 hPa | 0 mm | - | 0 W/m² | - |
| 1777660852 | 12.78° C | 65% | 1021.6 hPa | 0 mm | - | 8 W/m² | - |
| 1777660256 | 13.89° C | 61% | 1021.6 hPa | 0 mm | - | 10 W/m² | - |
| 1777656643 | 20° C | 34% | 1021 hPa | 0 mm | - | 24 W/m² | - |
| 1777656057 | 21.11° C | 29% | 1020.9 hPa | 0 mm | - | 28 W/m² | - |
| 1777655456 | 22.22° C | 24% | 1020.8 hPa | 0 mm | - | 30 W/m² | - |
| 1777649451 | 23.89° C | 23% | 1021.1 hPa | 0 mm | - | 452 W/m² | - |
| 1777646448 | 23.89° C | 21% | 1021.5 hPa | 0 mm | - | 576 W/m² | - |
| 1777644635 | 24.44° C | 23% | 1021.7 hPa | 0 mm | - | 658 W/m² | - |
| 1777642221 | 23.89° C | 22% | 1022.1 hPa | 0 mm | - | 734 W/m² | - |
| 1777633833 | 22.22° C | 25% | 1023.5 hPa | 0 mm | - | 834 W/m² | - |
| 1777631448 | 21.67° C | 26% | 1023.8 hPa | 0 mm | - | 812 W/m² | - |
| 1777630222 | 21.11° C | 25% | 1024.1 hPa | 0 mm | - | 792 W/m² | - |
| 1777629629 | 20.56° C | 29% | 1024.2 hPa | 0 mm | - | 780 W/m² | - |
| 1777629039 | 20.56° C | 27% | 1024.3 hPa | 0 mm | - | 768 W/m² | - |
| 1777628432 | 20° C | 29% | 1024.4 hPa | 0 mm | - | 752 W/m² | - |
| 1777621250 | 11.11° C | 62% | 1025.1 hPa | 0 mm | - | 394 W/m² | - |
| 1777618822 | 5.56° C | 88% | 1025 hPa | 0 mm | - | 36 W/m² | - |
| 1777615223 | 1.67° C | 97% | 1024.9 hPa | 0 mm | - | 28 W/m² | - |
| 1777613421 | 1.11° C | 96% | 1024.8 hPa | 0 mm | - | 22 W/m² | - |
* Rain latest hour (hover to see other rain measurements)
** Current wind speed in m/s (hover to see current wind gust speed)